createdAt,value
2023-05-03T00:00:08.814Z,17.98
2023-05-03T00:02:57.662Z,18.39
2023-05-03T00:05:26.840Z,18.45
2023-05-03T00:07:54.847Z,18.56
2023-05-03T00:10:23.270Z,18.38
2023-05-03T00:12:51.288Z,18.53
2023-05-03T00:15:19.509Z,18.60
2023-05-03T00:17:47.528Z,18.20
2023-05-03T00:20:15.790Z,18.42
2023-05-03T00:22:43.919Z,18.55
2023-05-03T00:25:12.169Z,18.49
2023-05-03T00:27:40.020Z,18.34
2023-05-03T00:30:09.820Z,18.63
2023-05-03T00:32:37.754Z,18.38
2023-05-03T00:35:06.889Z,18.30
2023-05-03T00:37:34.889Z,18.38
2023-05-03T00:40:04.870Z,18.63
2023-05-03T00:42:36.954Z,18.15
2023-05-03T00:45:06.429Z,17.97
2023-05-03T00:47:35.016Z,17.92
2023-05-03T00:50:05.815Z,17.69
2023-05-03T00:52:34.945Z,17.90
2023-05-03T00:55:03.929Z,17.91
2023-05-03T00:57:31.890Z,17.99
2023-05-03T01:00:01.012Z,17.81
2023-05-03T01:02:29.451Z,18.11
2023-05-03T01:04:57.910Z,18.05
2023-05-03T01:07:48.571Z,18.07
2023-05-03T01:10:22.113Z,17.91
2023-05-03T01:13:00.138Z,17.86
2023-05-03T01:16:04.046Z,17.63
2023-05-03T01:18:49.222Z,17.87
2023-05-03T01:21:18.989Z,17.41
2023-05-03T01:24:04.460Z,17.69
2023-05-03T01:26:33.739Z,17.47
2023-05-03T01:29:01.987Z,17.51
2023-05-03T01:31:37.550Z,17.39
2023-05-03T01:34:18.846Z,17.78
2023-05-03T01:36:49.563Z,18.02
2023-05-03T01:39:24.750Z,18.01
2023-05-03T01:41:53.772Z,18.12
2023-05-03T01:44:24.645Z,17.43
2023-05-03T01:46:53.010Z,17.46
2023-05-03T01:49:21.035Z,17.92
2023-05-03T01:51:49.998Z,17.75
2023-05-03T01:54:18.850Z,17.61
2023-05-03T01:56:47.199Z,17.98
2023-05-03T01:59:16.422Z,18.15
2023-05-03T02:01:46.185Z,17.89
2023-05-03T02:04:14.190Z,17.88
2023-05-03T02:06:42.592Z,17.90
2023-05-03T02:09:10.801Z,17.82
2023-05-03T02:11:39.074Z,17.73
2023-05-03T02:14:08.452Z,17.78
2023-05-03T02:16:37.149Z,17.96
2023-05-03T02:19:05.936Z,17.92
2023-05-03T02:21:36.642Z,17.91
2023-05-03T02:24:04.880Z,18.15
2023-05-03T02:26:33.300Z,18.00
2023-05-03T02:29:01.784Z,17.88
2023-05-03T02:31:32.777Z,17.95
2023-05-03T02:34:01.124Z,17.74
2023-05-03T02:36:29.763Z,17.91
2023-05-03T02:38:58.518Z,17.83
2023-05-03T02:41:27.395Z,17.84
2023-05-03T02:43:55.494Z,17.81
2023-05-03T02:46:26.928Z,17.79
2023-05-03T02:48:55.141Z,17.86
2023-05-03T02:51:24.199Z,17.46
2023-05-03T02:53:52.140Z,17.82
2023-05-03T02:56:21.060Z,18.03
2023-05-03T02:58:48.986Z,18.08
2023-05-03T03:01:17.639Z,18.14
2023-05-03T03:03:45.895Z,18.26
2023-05-03T03:06:14.757Z,18.28
2023-05-03T03:08:44.569Z,17.99
2023-05-03T03:11:13.349Z,18.05
2023-05-03T03:13:41.557Z,18.07
2023-05-03T03:16:10.561Z,18.03
2023-05-03T03:18:38.540Z,17.92
2023-05-03T03:21:07.132Z,17.90
2023-05-03T03:23:37.212Z,17.65
2023-05-03T03:26:05.588Z,17.90
2023-05-03T03:28:33.690Z,17.90
2023-05-03T03:31:06.932Z,17.81
2023-05-03T03:33:35.039Z,17.85
2023-05-03T03:36:10.678Z,17.45
2023-05-03T03:38:42.201Z,17.66
2023-05-03T03:41:12.373Z,17.78
2023-05-03T03:43:40.363Z,18.00
2023-05-03T03:46:13.710Z,17.69
2023-05-03T03:48:43.101Z,17.79
2023-05-03T03:51:11.728Z,17.62
2023-05-03T03:53:45.766Z,17.45
2023-05-03T03:56:15.110Z,17.72
2023-05-03T03:58:43.808Z,17.68
2023-05-03T04:01:13.991Z,17.63
2023-05-03T04:03:41.934Z,17.61
2023-05-03T04:06:11.060Z,17.75
2023-05-03T04:08:39.028Z,17.73
2023-05-03T04:11:12.690Z,17.67
2023-05-03T04:13:46.603Z,17.71
2023-05-03T04:16:15.574Z,17.76
2023-05-03T04:18:43.971Z,17.86
2023-05-03T04:21:12.556Z,17.77
2023-05-03T04:23:40.903Z,17.68
2023-05-03T04:26:20.195Z,17.68
2023-05-03T04:28:56.982Z,17.69
2023-05-03T04:31:25.669Z,17.61
2023-05-03T04:33:55.690Z,17.58
2023-05-03T04:36:26.081Z,17.52
2023-05-03T04:38:56.479Z,17.71
2023-05-03T04:41:25.867Z,17.88
2023-05-03T04:43:55.615Z,17.58
2023-05-03T04:46:24.443Z,17.68
2023-05-03T04:48:52.729Z,17.95
2023-05-03T04:51:21.232Z,17.70
2023-05-03T04:53:51.139Z,17.85
2023-05-03T04:56:26.527Z,17.89
2023-05-03T04:59:02.050Z,17.84
2023-05-03T05:01:30.306Z,17.80
2023-05-03T05:04:02.357Z,17.77
2023-05-03T05:06:37.489Z,17.64
2023-05-03T05:09:22.191Z,17.86
2023-05-03T05:11:53.553Z,17.66
2023-05-03T05:14:23.552Z,18.03
2023-05-03T05:16:51.995Z,18.09
2023-05-03T05:19:20.056Z,18.12
2023-05-03T05:21:48.479Z,18.05
2023-05-03T05:24:17.427Z,18.21
2023-05-03T05:26:47.290Z,18.07
2023-05-03T05:29:16.722Z,18.38
2023-05-03T05:31:45.364Z,18.30
2023-05-03T05:34:13.735Z,18.21
2023-05-03T05:36:42.686Z,18.26
2023-05-03T05:39:10.716Z,18.41
2023-05-03T05:41:39.672Z,18.36
2023-05-03T05:44:08.156Z,18.31
2023-05-03T05:46:36.402Z,18.47
2023-05-03T05:49:05.156Z,18.52
2023-05-03T05:51:33.326Z,18.49
2023-05-03T05:54:01.237Z,18.49
2023-05-03T05:56:29.735Z,18.59
2023-05-03T05:58:57.847Z,18.61
2023-05-03T06:01:27.460Z,18.70
2023-05-03T06:03:56.732Z,18.74
2023-05-03T06:06:26.427Z,18.88
2023-05-03T06:08:55.454Z,18.93
2023-05-03T06:11:23.743Z,18.87
2023-05-03T06:13:51.961Z,19.06
2023-05-03T06:16:22.300Z,18.91
2023-05-03T06:18:51.307Z,18.75
2023-05-03T06:21:19.539Z,18.93
2023-05-03T06:23:47.462Z,19.01
2023-05-03T06:26:17.724Z,19.10
2023-05-03T06:28:47.471Z,19.33
2023-05-03T06:31:16.838Z,19.25
2023-05-03T06:33:46.270Z,19.14
2023-05-03T06:36:14.785Z,19.19
2023-05-03T06:38:44.199Z,19.09
2023-05-03T06:41:12.437Z,19.24
2023-05-03T06:43:40.384Z,19.51
2023-05-03T06:46:09.016Z,19.12
2023-05-03T06:48:36.961Z,19.24
2023-05-03T06:51:06.205Z,19.10
2023-05-03T06:53:34.178Z,19.21
2023-05-03T06:56:03.881Z,19.40
2023-05-03T06:58:32.032Z,19.36
2023-05-03T07:01:00.240Z,19.44
2023-05-03T07:03:28.248Z,19.64
2023-05-03T07:05:56.659Z,19.60
2023-05-03T07:08:24.628Z,19.48
2023-05-03T07:10:52.851Z,19.80
2023-05-03T07:13:20.828Z,19.74
2023-05-03T07:15:49.328Z,19.83
2023-05-03T07:18:17.506Z,20.28
2023-05-03T07:20:46.839Z,20.18
2023-05-03T07:23:15.861Z,20.10
2023-05-03T07:25:46.055Z,20.06
2023-05-03T07:28:14.110Z,20.19
2023-05-03T07:30:42.352Z,20.06
2023-05-03T07:33:10.272Z,19.98
2023-05-03T07:35:38.656Z,19.83
2023-05-03T07:38:06.546Z,20.43
2023-05-03T07:40:34.816Z,20.80
2023-05-03T07:43:03.316Z,20.44
2023-05-03T07:45:31.735Z,20.81
2023-05-03T07:47:59.617Z,20.86
2023-05-03T07:50:27.978Z,20.98
2023-05-03T07:52:56.712Z,20.66
2023-05-03T07:55:28.541Z,21.10
2023-05-03T07:57:59.606Z,21.57
2023-05-03T08:00:28.414Z,21.58
2023-05-03T08:02:56.686Z,21.99
2023-05-03T08:05:26.256Z,22.21
2023-05-03T08:07:54.396Z,21.63
2023-05-03T08:10:22.805Z,21.78
2023-05-03T08:12:50.998Z,21.63
2023-05-03T08:15:19.497Z,22.10
2023-05-03T08:17:47.366Z,22.62
2023-05-03T08:20:17.116Z,22.91
2023-05-03T08:22:46.635Z,22.66
2023-05-03T08:25:17.871Z,22.02
2023-05-03T08:27:45.919Z,21.73
2023-05-03T08:30:14.378Z,22.31
2023-05-03T08:32:42.321Z,22.97
2023-05-03T08:35:11.143Z,23.01
2023-05-03T08:37:42.909Z,22.93
2023-05-03T08:40:15.800Z,23.49
2023-05-03T08:42:46.262Z,23.31
2023-05-03T08:45:16.553Z,23.36
2023-05-03T08:47:45.571Z,23.41
2023-05-03T08:50:16.120Z,24.12
2023-05-03T08:52:44.482Z,23.43
2023-05-03T08:55:13.140Z,23.10
2023-05-03T08:57:41.496Z,22.92
2023-05-03T09:00:13.440Z,24.52
2023-05-03T09:02:41.677Z,24.31
2023-05-03T09:05:15.998Z,24.09
2023-05-03T09:08:05.262Z,24.55
2023-05-03T09:10:38.754Z,24.42
2023-05-03T09:13:08.044Z,24.05
2023-05-03T09:15:36.424Z,24.27
2023-05-03T09:18:13.967Z,24.65
2023-05-03T09:20:43.104Z,25.08
2023-05-03T09:23:11.044Z,25.10
2023-05-03T09:25:46.288Z,24.06
2023-05-03T09:28:15.792Z,24.15
2023-05-03T09:30:45.253Z,24.44
2023-05-03T09:33:23.835Z,25.08
2023-05-03T09:36:01.250Z,24.81
2023-05-03T09:38:35.018Z,24.56
2023-05-03T09:41:06.451Z,24.60
2023-05-03T09:43:36.226Z,24.98
2023-05-03T09:46:13.053Z,25.56
2023-05-03T09:48:41.424Z,26.28
2023-05-03T09:51:11.626Z,25.52
2023-05-03T09:53:40.668Z,25.44
2023-05-03T09:56:14.180Z,26.35
2023-05-03T09:58:44.020Z,26.66
2023-05-03T10:01:15.123Z,27.14
2023-05-03T10:03:52.124Z,27.23
2023-05-03T10:06:32.052Z,26.61
2023-05-03T10:09:14.736Z,25.68
2023-05-03T10:11:52.123Z,25.95
2023-05-03T10:14:21.812Z,25.19
2023-05-03T10:16:53.951Z,25.46
2023-05-03T10:19:28.807Z,25.25
2023-05-03T10:22:09.166Z,25.74
2023-05-03T10:24:38.877Z,26.46
2023-05-03T10:27:08.806Z,27.04
2023-05-03T10:29:46.594Z,25.53
2023-05-03T10:32:33.838Z,25.11
2023-05-03T10:35:13.296Z,25.40
2023-05-03T10:37:43.256Z,24.98
2023-05-03T10:40:16.031Z,24.83
2023-05-03T10:42:56.632Z,25.82
2023-05-03T10:45:29.171Z,25.29
2023-05-03T10:48:12.752Z,26.52
2023-05-03T10:50:40.795Z,27.29
2023-05-03T10:53:29.545Z,27.56
2023-05-03T10:56:06.825Z,27.41
2023-05-03T10:58:44.047Z,26.38
2023-05-03T11:01:14.473Z,25.60
2023-05-03T11:04:13.825Z,26.41
2023-05-03T11:06:42.070Z,24.87
2023-05-03T11:09:12.671Z,25.48
2023-05-03T11:11:42.217Z,24.99
2023-05-03T11:14:14.040Z,23.88
2023-05-03T11:16:48.295Z,24.52
2023-05-03T11:19:17.252Z,25.33
2023-05-03T11:21:46.392Z,24.76
2023-05-03T11:24:15.747Z,25.37
2023-05-03T11:26:43.629Z,25.44
2023-05-03T11:29:13.290Z,26.25
2023-05-03T11:31:43.452Z,26.51
2023-05-03T11:34:13.443Z,26.36
2023-05-03T11:36:42.516Z,26.23
2023-05-03T11:39:14.686Z,25.08
2023-05-03T11:41:42.695Z,25.07
2023-05-03T11:44:16.861Z,25.50
2023-05-03T11:46:49.580Z,25.60
2023-05-03T11:49:19.635Z,26.23
2023-05-03T11:51:51.606Z,25.57
2023-05-03T11:54:26.001Z,26.07
2023-05-03T11:56:58.199Z,27.18
2023-05-03T11:59:38.422Z,27.37
2023-05-03T12:02:12.137Z,26.53
2023-05-03T12:04:43.742Z,26.16
2023-05-03T12:07:15.206Z,26.13
2023-05-03T12:09:53.215Z,27.72
2023-05-03T12:12:32.118Z,25.86
2023-05-03T12:15:03.853Z,26.99
2023-05-03T12:17:44.443Z,27.06
2023-05-03T12:22:58.543Z,27.04
2023-05-03T12:25:32.957Z,27.12
2023-05-03T12:30:36.065Z,27.81
2023-05-03T12:33:05.173Z,26.77
2023-05-03T12:35:34.628Z,24.87
2023-05-03T12:38:04.756Z,25.03
2023-05-03T12:40:35.133Z,23.94
2023-05-03T12:43:03.893Z,24.38
2023-05-03T12:45:34.462Z,24.84
2023-05-03T12:48:03.406Z,24.21
2023-05-03T12:50:36.835Z,26.39
2023-05-03T12:53:09.578Z,27.24
2023-05-03T12:55:43.257Z,27.83
2023-05-03T13:00:53.244Z,26.91
2023-05-03T13:03:34.415Z,25.90
2023-05-03T13:06:13.261Z,25.76
2023-05-03T13:08:49.723Z,24.88
2023-05-03T13:11:19.812Z,24.86
2023-05-03T13:13:48.108Z,25.58
2023-05-03T13:16:16.413Z,25.51
2023-05-03T13:18:45.620Z,25.31
2023-05-03T13:21:13.998Z,25.88
2023-05-03T13:23:41.999Z,24.63
2023-05-03T13:26:10.277Z,26.38
2023-05-03T13:28:38.235Z,25.54
2023-05-03T13:31:06.663Z,24.69
2023-05-03T13:33:38.201Z,25.27
2023-05-03T13:36:07.095Z,25.07
2023-05-03T13:38:35.676Z,25.21
2023-05-03T13:41:09.916Z,25.55
2023-05-03T13:43:37.756Z,25.26
2023-05-03T13:46:05.938Z,26.20
2023-05-03T13:48:34.307Z,25.05
2023-05-03T13:51:10.306Z,25.21
2023-05-03T13:53:38.750Z,26.11
2023-05-03T13:56:07.854Z,26.09
2023-05-03T13:58:36.439Z,26.02
2023-05-03T14:01:04.699Z,25.77
2023-05-03T14:03:34.231Z,26.44
2023-05-03T14:06:02.981Z,26.65
2023-05-03T14:08:31.049Z,26.76
2023-05-03T14:10:59.583Z,26.09
2023-05-03T14:13:31.301Z,26.68
2023-05-03T14:16:06.456Z,27.71
2023-05-03T14:18:34.434Z,28.16
2023-05-03T14:21:02.813Z,27.91
2023-05-03T14:23:30.941Z,27.61
2023-05-03T14:25:59.245Z,26.95
2023-05-03T14:28:27.196Z,26.61
2023-05-03T14:30:55.368Z,26.26
2023-05-03T14:33:23.297Z,26.44
2023-05-03T14:35:51.580Z,26.03
2023-05-03T14:38:19.493Z,26.38
2023-05-03T14:40:48.097Z,26.17
2023-05-03T14:43:16.197Z,26.08
2023-05-03T14:45:45.776Z,25.93
2023-05-03T14:48:13.806Z,25.85
2023-05-03T14:50:42.566Z,25.13
2023-05-03T14:53:10.507Z,25.42
2023-05-03T14:55:38.726Z,25.47
2023-05-03T14:58:07.528Z,25.33
2023-05-03T15:00:42.601Z,25.24
2023-05-03T15:03:12.556Z,25.10
2023-05-03T15:05:46.717Z,24.97
2023-05-03T15:08:17.004Z,25.19
2023-05-03T15:10:45.962Z,25.28
2023-05-03T15:13:16.641Z,25.29
2023-05-03T15:15:46.121Z,25.32
2023-05-03T15:18:15.908Z,25.05
2023-05-03T15:20:43.815Z,25.23
2023-05-03T15:23:11.980Z,25.09
2023-05-03T15:25:40.114Z,24.95
2023-05-03T15:28:08.569Z,25.36
2023-05-03T15:30:36.510Z,26.07
2023-05-03T15:33:05.096Z,26.83
2023-05-03T15:35:33.095Z,27.00
2023-05-03T15:38:01.615Z,27.15
2023-05-03T15:40:29.930Z,26.41
2023-05-03T15:42:58.409Z,25.99
2023-05-03T15:45:28.428Z,26.12
2023-05-03T15:47:57.285Z,25.99
2023-05-03T15:50:25.388Z,25.78
2023-05-03T15:52:53.665Z,25.00
2023-05-03T15:55:21.509Z,25.11
2023-05-03T15:57:52.334Z,24.77
2023-05-03T16:00:23.289Z,24.65
2023-05-03T16:02:52.159Z,24.62
2023-05-03T16:05:20.418Z,24.52
2023-05-03T16:07:49.602Z,24.67
2023-05-03T16:10:17.877Z,24.90
2023-05-03T16:12:46.517Z,25.01
2023-05-03T16:15:14.296Z,24.89
2023-05-03T16:17:42.535Z,24.92
2023-05-03T16:20:11.741Z,24.78
2023-05-03T16:22:39.978Z,24.85
2023-05-03T16:25:11.301Z,24.92
2023-05-03T16:27:42.688Z,24.81
2023-05-03T16:30:11.187Z,24.75
2023-05-03T16:32:40.376Z,24.48
2023-05-03T16:35:08.528Z,24.44
2023-05-03T16:37:37.771Z,24.62
2023-05-03T16:40:10.519Z,24.52
2023-05-03T16:42:39.566Z,24.51
2023-05-03T16:45:10.731Z,24.45
2023-05-03T16:47:40.088Z,24.46
2023-05-03T16:50:09.092Z,24.36
2023-05-03T16:52:42.680Z,24.49
2023-05-03T16:55:11.632Z,24.26
2023-05-03T16:57:42.740Z,24.33
2023-05-03T17:00:12.648Z,24.24
2023-05-03T17:02:41.391Z,24.50
2023-05-03T17:05:10.634Z,24.46
2023-05-03T17:07:41.057Z,24.40
2023-05-03T17:10:09.728Z,24.19
2023-05-03T17:12:38.057Z,24.17
2023-05-03T17:15:06.565Z,24.15
2023-05-03T17:17:34.846Z,24.06
2023-05-03T17:20:02.939Z,24.18
2023-05-03T17:22:31.617Z,24.08
2023-05-03T17:24:59.756Z,24.34
2023-05-03T17:27:28.157Z,24.39
2023-05-03T17:29:57.770Z,23.91
2023-05-03T17:32:26.041Z,23.84
2023-05-03T17:34:53.935Z,24.09
2023-05-03T17:37:24.017Z,24.00
2023-05-03T17:39:51.887Z,23.98
2023-05-03T17:42:20.226Z,23.97
2023-05-03T17:44:52.224Z,24.04
2023-05-03T17:47:21.316Z,23.98
2023-05-03T17:49:49.127Z,23.81
2023-05-03T17:52:17.624Z,24.04
2023-05-03T17:54:46.380Z,23.93
2023-05-03T17:57:14.688Z,23.86
2023-05-03T17:59:42.539Z,23.97
2023-05-03T18:02:11.016Z,23.80
2023-05-03T18:04:38.888Z,23.80
2023-05-03T18:07:06.984Z,23.85
2023-05-03T18:09:34.841Z,23.57
2023-05-03T18:12:04.379Z,23.78
2023-05-03T18:14:35.457Z,23.62
2023-05-03T18:17:03.673Z,23.61
2023-05-03T18:19:32.643Z,23.80
2023-05-03T18:22:00.739Z,23.81
2023-05-03T18:24:28.619Z,23.74
2023-05-03T18:26:57.273Z,23.74
2023-05-03T18:29:25.931Z,23.61
2023-05-03T18:31:54.964Z,23.68
2023-05-03T18:34:23.020Z,23.51
2023-05-03T18:36:51.923Z,23.55
2023-05-03T18:39:20.339Z,23.50
2023-05-03T18:41:50.796Z,23.42
2023-05-03T18:44:19.678Z,23.40
2023-05-03T18:46:48.989Z,23.51
2023-05-03T18:49:18.639Z,23.50
2023-05-03T18:51:47.557Z,23.49
2023-05-03T18:54:16.397Z,23.64
2023-05-03T18:56:45.918Z,23.59
2023-05-03T18:59:14.678Z,23.60
2023-05-03T19:01:43.657Z,23.49
2023-05-03T19:04:14.683Z,23.52
2023-05-03T19:06:44.382Z,23.46
2023-05-03T19:09:13.734Z,23.48
2023-05-03T19:11:44.916Z,23.36
2023-05-03T19:14:13.394Z,23.53
2023-05-03T19:16:43.241Z,23.47
2023-05-03T19:19:12.955Z,23.31
2023-05-03T19:21:43.784Z,23.44
2023-05-03T19:24:14.980Z,23.28
2023-05-03T19:26:44.351Z,23.21
2023-05-03T19:29:13.672Z,23.00
2023-05-03T19:31:43.088Z,23.10
2023-05-03T19:34:12.645Z,23.08
2023-05-03T19:36:42.901Z,23.10
2023-05-03T19:39:12.606Z,23.12
2023-05-03T19:41:42.417Z,23.01
2023-05-03T19:44:12.676Z,22.92
2023-05-03T19:46:42.155Z,22.96
2023-05-03T19:49:11.398Z,22.99
2023-05-03T19:51:40.106Z,22.76
2023-05-03T19:54:08.138Z,22.76
2023-05-03T19:56:36.466Z,22.97
2023-05-03T19:59:04.352Z,23.04
2023-05-03T20:01:32.862Z,22.76
2023-05-03T20:04:01.112Z,22.98
2023-05-03T20:06:29.567Z,22.81
2023-05-03T20:08:57.896Z,22.76
2023-05-03T20:11:26.278Z,22.75
2023-05-03T20:13:54.111Z,22.81
2023-05-03T20:16:22.339Z,22.70
2023-05-03T20:18:50.256Z,22.53
2023-05-03T20:21:18.459Z,22.61
2023-05-03T20:23:48.957Z,22.68
2023-05-03T20:26:19.328Z,22.67
2023-05-03T20:28:47.544Z,22.62
2023-05-03T20:31:16.292Z,22.88
2023-05-03T20:33:44.377Z,22.81
2023-05-03T20:36:14.596Z,22.83
2023-05-03T20:38:42.862Z,22.60
2023-05-03T20:41:11.068Z,22.63
2023-05-03T20:43:39.151Z,22.54
2023-05-03T20:46:07.618Z,22.55
2023-05-03T20:48:36.225Z,22.54
2023-05-03T20:51:08.536Z,22.19
2023-05-03T20:53:37.561Z,22.31
2023-05-03T20:56:08.213Z,22.23
2023-05-03T20:58:36.064Z,22.04
2023-05-03T21:01:05.539Z,22.20
2023-05-03T21:03:33.798Z,22.37
2023-05-03T21:06:02.493Z,22.64
2023-05-03T21:08:30.507Z,22.26
2023-05-03T21:10:58.777Z,22.39
2023-05-03T21:13:26.660Z,22.40
2023-05-03T21:15:55.447Z,22.32
2023-05-03T21:18:24.982Z,22.32
2023-05-03T21:20:54.438Z,22.44
2023-05-03T21:23:22.475Z,22.34
2023-05-03T21:25:52.027Z,22.63
2023-05-03T21:28:21.014Z,22.50
2023-05-03T21:30:49.245Z,22.64
2023-05-03T21:33:17.126Z,22.57
2023-05-03T21:35:45.490Z,22.37
2023-05-03T21:38:13.412Z,22.17
2023-05-03T21:40:41.747Z,22.22
2023-05-03T21:43:10.095Z,22.56
2023-05-03T21:45:42.987Z,22.28
2023-05-03T21:48:10.944Z,22.26
2023-05-03T21:50:39.871Z,22.14
2023-05-03T21:53:07.773Z,22.22
2023-05-03T21:55:35.886Z,22.21
2023-05-03T21:58:03.746Z,22.07
2023-05-03T22:00:31.986Z,22.00
2023-05-03T22:02:59.867Z,21.77
2023-05-03T22:05:28.586Z,21.86
2023-05-03T22:07:56.684Z,22.05
2023-05-03T22:10:25.065Z,22.07
2023-05-03T22:12:52.962Z,21.99
2023-05-03T22:15:21.672Z,21.73
2023-05-03T22:17:49.616Z,21.70
2023-05-03T22:20:17.941Z,21.67
2023-05-03T22:22:45.708Z,21.48
2023-05-03T22:25:23.249Z,21.30
2023-05-03T22:27:52.159Z,21.37
2023-05-03T22:30:21.175Z,21.38
2023-05-03T22:32:49.547Z,21.44
2023-05-03T22:35:17.824Z,21.52
2023-05-03T22:37:45.619Z,21.64
2023-05-03T22:40:14.232Z,21.62
2023-05-03T22:42:42.094Z,21.41
2023-05-03T22:45:10.667Z,21.47
2023-05-03T22:47:38.587Z,21.36
2023-05-03T22:50:07.805Z,21.33
2023-05-03T22:52:35.733Z,21.19
2023-05-03T22:55:04.561Z,21.35
2023-05-03T22:57:32.501Z,21.38
2023-05-03T23:00:01.137Z,21.27
2023-05-03T23:02:29.090Z,21.45
2023-05-03T23:04:57.319Z,21.38
2023-05-03T23:07:25.134Z,21.19
2023-05-03T23:10:03.061Z,20.89
2023-05-03T23:12:31.491Z,20.93
2023-05-03T23:14:59.926Z,20.89
2023-05-03T23:17:27.808Z,21.00
2023-05-03T23:19:56.022Z,20.91
2023-05-03T23:22:23.843Z,20.99
2023-05-03T23:24:52.290Z,20.96
2023-05-03T23:27:20.164Z,21.10
2023-05-03T23:29:49.216Z,20.95
2023-05-03T23:32:17.414Z,20.95
2023-05-03T23:34:46.074Z,21.07
2023-05-03T23:37:13.925Z,21.06
2023-05-03T23:39:46.183Z,21.03
2023-05-03T23:42:14.197Z,20.90
2023-05-03T23:44:54.587Z,20.89
2023-05-03T23:47:24.519Z,20.88
2023-05-03T23:49:52.860Z,20.86
2023-05-03T23:52:21.010Z,20.81
2023-05-03T23:54:49.199Z,20.92
2023-05-03T23:57:17.092Z,20.96
2023-05-03T23:59:45.786Z,20.79
